createdAt,value
2022-10-24T00:00:24.755Z,10.93
2022-10-24T00:04:27.149Z,10.50
2022-10-24T00:08:29.084Z,9.30
2022-10-24T00:12:31.115Z,10.00
2022-10-24T00:16:33.502Z,10.15
2022-10-24T00:20:37.178Z,9.90
2022-10-24T00:24:39.447Z,9.15
2022-10-24T00:28:41.795Z,9.07
2022-10-24T00:32:43.857Z,9.10
2022-10-24T00:36:46.719Z,8.90
2022-10-24T00:40:48.754Z,8.98
2022-10-24T00:44:53.556Z,9.43
2022-10-24T00:48:55.743Z,9.38
2022-10-24T00:52:57.815Z,8.35
2022-10-24T00:57:14.935Z,9.25
2022-10-24T01:01:17.212Z,9.38
2022-10-24T01:05:21.594Z,9.15
2022-10-24T01:09:36.696Z,9.10
2022-10-24T01:13:57.508Z,8.50
2022-10-24T01:18:02.220Z,8.82
2022-10-24T01:22:32.754Z,8.60
2022-10-24T01:27:12.381Z,9.07
2022-10-24T01:31:51.176Z,9.90
2022-10-24T01:35:59.773Z,9.80
2022-10-24T01:40:09.845Z,9.77
2022-10-24T01:44:16.288Z,9.48
2022-10-24T01:48:22.036Z,10.18
2022-10-24T01:52:27.465Z,9.35
2022-10-24T01:56:29.457Z,9.65
2022-10-24T02:00:31.473Z,10.32
2022-10-24T02:04:36.359Z,9.48
2022-10-24T02:08:43.774Z,10.25
2022-10-24T02:12:54.335Z,9.80
2022-10-24T02:16:59.299Z,9.18
2022-10-24T02:21:12.922Z,9.48
2022-10-24T02:25:26.409Z,9.73
2022-10-24T02:29:50.738Z,9.73
2022-10-24T02:33:55.055Z,10.95
2022-10-24T02:42:16.733Z,10.55
2022-10-24T02:46:20.254Z,10.40
2022-10-24T02:50:23.076Z,10.67
2022-10-24T02:54:25.100Z,10.43
2022-10-24T02:58:27.032Z,10.45
2022-10-24T03:02:29.023Z,10.30
2022-10-24T03:06:30.937Z,10.60
2022-10-24T03:10:32.851Z,11.38
2022-10-24T03:14:35.182Z,10.90
2022-10-24T03:18:37.485Z,10.85
2022-10-24T03:22:40.030Z,10.68
2022-10-24T03:26:41.941Z,9.95
2022-10-24T03:30:43.907Z,10.63
2022-10-24T03:34:45.905Z,10.63
2022-10-24T03:38:47.857Z,10.50
2022-10-24T03:42:49.776Z,11.45
2022-10-24T03:46:51.943Z,11.35
2022-10-24T03:50:53.951Z,10.80
2022-10-24T03:54:55.903Z,11.15
2022-10-24T03:58:57.824Z,10.82
2022-10-24T04:02:59.966Z,11.82
2022-10-24T04:07:02.172Z,11.48
2022-10-24T04:11:05.381Z,10.95
2022-10-24T04:15:07.778Z,10.68
2022-10-24T04:19:10.836Z,11.52
2022-10-24T04:23:12.996Z,11.77
2022-10-24T04:27:15.078Z,10.48
2022-10-24T04:31:19.597Z,11.15
2022-10-24T04:35:28.433Z,11.13
2022-10-24T04:39:30.636Z,11.07
2022-10-24T04:43:32.710Z,10.95
2022-10-24T04:47:34.711Z,10.43
2022-10-24T04:51:36.974Z,10.57
2022-10-24T04:55:38.970Z,11.20
2022-10-24T04:59:40.882Z,10.30
2022-10-24T05:03:42.854Z,10.23
2022-10-24T05:07:46.163Z,11.27
2022-10-24T05:11:48.371Z,11.73
2022-10-24T05:15:53.746Z,11.50
2022-10-24T05:19:55.818Z,11.05
2022-10-24T05:23:57.761Z,11.20
2022-10-24T05:27:59.716Z,10.85
2022-10-24T05:32:01.818Z,11.60
2022-10-24T05:36:04.002Z,11.75
2022-10-24T05:40:10.489Z,11.52
2022-10-24T05:44:13.381Z,11.35
2022-10-24T05:48:15.999Z,12.75
2022-10-24T05:52:18.031Z,12.88
2022-10-24T05:56:20.113Z,12.30
2022-10-24T06:00:22.836Z,13.07
2022-10-24T06:04:25.370Z,13.80
2022-10-24T06:08:27.295Z,13.32
2022-10-24T06:12:29.306Z,12.85
2022-10-24T06:16:31.685Z,11.48
2022-10-24T06:20:33.839Z,13.57
2022-10-24T06:24:38.154Z,12.65
2022-10-24T06:28:41.290Z,12.47
2022-10-24T06:32:44.654Z,12.45
2022-10-24T06:36:46.899Z,11.48
2022-10-24T06:40:48.892Z,11.73
2022-10-24T06:44:51.541Z,10.52
2022-10-24T06:48:55.301Z,12.50
2022-10-24T06:52:57.226Z,13.30
2022-10-24T06:56:59.241Z,12.50
2022-10-24T07:01:08.788Z,11.55
2022-10-24T07:05:12.846Z,11.82
2022-10-24T07:09:15.616Z,13.05
2022-10-24T07:13:17.817Z,13.82
2022-10-24T07:17:20.536Z,12.52
2022-10-24T07:21:28.317Z,12.50
2022-10-24T07:25:30.313Z,12.10
2022-10-24T07:29:32.423Z,12.32
2022-10-24T07:33:37.766Z,11.15
2022-10-24T07:37:40.276Z,11.75
2022-10-24T07:41:42.611Z,12.55
2022-10-24T07:45:49.124Z,11.32
2022-10-24T07:49:54.082Z,13.32
2022-10-24T07:53:58.250Z,18.15
2022-10-24T08:02:02.154Z,12.75
2022-10-24T08:06:09.395Z,12.13
2022-10-24T08:10:13.027Z,11.38
2022-10-24T08:14:14.963Z,11.38
2022-10-24T08:18:17.824Z,9.65
2022-10-24T08:22:19.879Z,11.20
2022-10-24T08:26:23.920Z,8.95
2022-10-24T08:30:25.928Z,8.57
2022-10-24T08:34:28.163Z,8.40
2022-10-24T08:38:30.771Z,8.15
2022-10-24T08:42:33.996Z,8.48
2022-10-24T08:46:49.102Z,8.70
2022-10-24T08:50:56.822Z,8.57
2022-10-24T08:55:25.083Z,8.77
2022-10-24T08:59:36.449Z,9.35
2022-10-24T09:04:00.544Z,9.27
2022-10-24T09:08:23.026Z,8.73
2022-10-24T09:12:26.368Z,8.30
2022-10-24T09:16:28.447Z,8.60
2022-10-24T09:20:33.699Z,7.72
2022-10-24T09:25:04.623Z,8.07
2022-10-24T09:29:06.724Z,7.07
2022-10-24T09:33:35.317Z,7.95
2022-10-24T09:37:42.493Z,8.10
2022-10-24T09:41:48.496Z,7.38
2022-10-24T09:46:12.596Z,7.53
2022-10-24T09:50:22.653Z,7.70
2022-10-24T09:54:28.464Z,7.43
2022-10-24T09:58:34.207Z,7.32
2022-10-24T10:02:37.600Z,7.00
2022-10-24T10:06:45.238Z,8.20
2022-10-24T10:11:06.354Z,7.50
2022-10-24T10:15:19.671Z,6.63
2022-10-24T10:19:22.136Z,6.93
2022-10-24T10:23:27.109Z,5.72
2022-10-24T10:27:41.615Z,5.70
2022-10-24T10:31:47.927Z,5.93
2022-10-24T10:36:28.867Z,5.90
2022-10-24T10:40:53.156Z,5.32
2022-10-24T10:45:19.854Z,5.45
2022-10-24T10:49:32.077Z,5.22
2022-10-24T10:53:50.149Z,4.75
2022-10-24T10:57:55.099Z,5.47
2022-10-24T11:02:13.249Z,4.82
2022-10-24T11:06:41.780Z,4.82
2022-10-24T11:10:50.856Z,5.25
2022-10-24T11:15:22.217Z,5.53
2022-10-24T11:19:41.028Z,5.40
2022-10-24T11:24:05.007Z,4.97
2022-10-24T11:28:14.264Z,5.70
2022-10-24T11:32:32.914Z,5.45
2022-10-24T11:37:00.590Z,5.90
2022-10-24T11:41:58.196Z,5.28
2022-10-24T11:46:16.478Z,5.80
2022-10-24T11:50:39.023Z,5.50
2022-10-24T11:54:53.494Z,5.45
2022-10-24T11:58:59.845Z,5.22
2022-10-24T12:03:11.035Z,5.40
2022-10-24T12:07:28.171Z,5.47
2022-10-24T12:11:57.809Z,5.65
2022-10-24T12:16:39.650Z,5.25
2022-10-24T12:20:42.290Z,5.20
2022-10-24T12:24:44.343Z,5.40
2022-10-24T12:29:01.493Z,4.97
2022-10-24T12:33:03.543Z,4.95
2022-10-24T12:37:18.639Z,5.47
2022-10-24T12:41:32.928Z,5.40
2022-10-24T12:45:35.060Z,5.28
2022-10-24T12:49:37.289Z,5.53
2022-10-24T12:54:00.979Z,4.70
2022-10-24T12:58:04.902Z,5.15
2022-10-24T13:02:16.044Z,5.22
2022-10-24T13:06:45.451Z,5.53
2022-10-24T13:11:07.455Z,5.13
2022-10-24T13:15:36.737Z,5.18
2022-10-24T13:19:39.224Z,5.07
2022-10-24T13:23:46.189Z,5.70
2022-10-24T13:28:19.989Z,5.32
2022-10-24T13:32:24.384Z,5.65
2022-10-24T13:36:31.410Z,5.07
2022-10-24T13:40:34.119Z,5.18
2022-10-24T13:44:45.558Z,4.80
2022-10-24T13:48:48.988Z,4.78
2022-10-24T13:52:54.918Z,5.45
2022-10-24T13:56:59.807Z,4.68
2022-10-24T14:01:07.590Z,5.72
2022-10-24T14:05:22.829Z,5.10
2022-10-24T14:09:24.760Z,4.93
2022-10-24T14:13:29.918Z,6.40
2022-10-24T14:17:35.862Z,5.80
2022-10-24T14:21:46.182Z,5.97
2022-10-24T14:25:55.689Z,7.50
2022-10-24T14:30:03.378Z,6.32
2022-10-24T14:34:06.608Z,7.78
2022-10-24T14:38:14.962Z,12.32
2022-10-24T14:42:18.488Z,19.40
2022-10-24T14:46:32.523Z,14.63
2022-10-24T14:50:45.403Z,6.40
2022-10-24T14:55:04.366Z,6.07
2022-10-24T14:59:17.156Z,11.02
2022-10-24T15:03:19.178Z,9.00
2022-10-24T15:07:37.436Z,7.68
2022-10-24T15:12:01.056Z,5.38
2022-10-24T15:16:03.083Z,6.93
2022-10-24T15:20:05.567Z,11.25
2022-10-24T15:24:20.455Z,7.30
2022-10-24T15:28:45.362Z,8.55
2022-10-24T15:32:49.372Z,6.07
2022-10-24T15:36:53.008Z,6.60
2022-10-24T15:40:55.442Z,6.28
2022-10-24T15:44:58.212Z,6.53
2022-10-24T15:49:00.485Z,6.45
2022-10-24T15:53:04.538Z,6.53
2022-10-24T15:57:06.463Z,6.97
2022-10-24T16:01:22.685Z,6.18
2022-10-24T16:05:30.986Z,6.40
2022-10-24T16:09:32.927Z,7.25
2022-10-24T16:13:34.914Z,7.20
2022-10-24T16:17:37.049Z,6.40
2022-10-24T16:21:41.111Z,6.80
2022-10-24T16:29:45.740Z,6.32
2022-10-24T16:33:47.936Z,6.18
2022-10-24T16:37:51.065Z,7.35
2022-10-24T16:41:54.463Z,7.13
2022-10-24T16:46:01.679Z,7.30
2022-10-24T16:50:04.851Z,6.78
2022-10-24T16:54:06.838Z,6.18
2022-10-24T16:58:08.870Z,6.93
2022-10-24T17:02:14.393Z,7.47
2022-10-24T17:06:16.528Z,7.18
2022-10-24T17:10:22.119Z,6.65
2022-10-24T17:14:28.124Z,6.72
2022-10-24T17:18:30.137Z,6.43
2022-10-24T17:26:35.589Z,8.10
2022-10-24T17:30:37.596Z,7.60
2022-10-24T17:34:41.956Z,6.70
2022-10-24T17:38:52.712Z,7.65
2022-10-24T17:42:55.137Z,10.77
2022-10-24T17:46:58.324Z,8.75
2022-10-24T17:51:02.267Z,9.50
2022-10-24T17:55:04.934Z,10.05
2022-10-24T17:59:06.980Z,10.15
2022-10-24T18:03:09.039Z,11.13
2022-10-24T18:07:11.103Z,11.40
2022-10-24T18:11:14.596Z,11.98
2022-10-24T18:15:21.411Z,11.17
2022-10-24T18:19:29.440Z,10.95
2022-10-24T18:23:38.796Z,11.35
2022-10-24T18:27:41.736Z,11.48
2022-10-24T18:31:46.445Z,11.75
2022-10-24T18:35:55.508Z,12.25
2022-10-24T18:40:08.523Z,17.95
2022-10-24T18:44:25.963Z,15.20
2022-10-24T18:48:31.828Z,14.50
2022-10-24T18:52:44.476Z,13.55
2022-10-24T18:56:47.805Z,13.25
2022-10-24T19:01:08.911Z,14.38
2022-10-24T19:05:18.480Z,14.85
2022-10-24T19:09:25.880Z,12.98
2022-10-24T19:13:28.149Z,13.88
2022-10-24T19:17:30.345Z,13.35
2022-10-24T19:21:32.449Z,14.15
2022-10-24T19:25:34.759Z,14.65
2022-10-24T19:29:37.089Z,13.45
2022-10-24T19:33:40.301Z,12.77
2022-10-24T19:37:45.826Z,12.30
2022-10-24T19:41:48.732Z,12.20
2022-10-24T19:46:07.586Z,12.32
2022-10-24T19:50:17.642Z,12.23
2022-10-24T19:54:19.917Z,13.73
2022-10-24T19:58:26.039Z,12.93
2022-10-24T20:02:28.528Z,12.95
2022-10-24T20:06:31.245Z,13.07
2022-10-24T20:10:33.286Z,12.77
2022-10-24T20:14:35.364Z,14.90
2022-10-24T20:18:39.113Z,18.80
2022-10-24T20:22:44.538Z,20.30
2022-10-24T20:26:50.516Z,19.65
2022-10-24T20:30:52.967Z,18.63
2022-10-24T20:34:55.081Z,16.83
2022-10-24T20:39:01.011Z,17.48
2022-10-24T20:43:04.735Z,16.00
2022-10-24T20:47:06.762Z,16.63
2022-10-24T20:51:13.752Z,15.05
2022-10-24T20:55:25.334Z,15.18
2022-10-24T20:59:38.055Z,15.18
2022-10-24T21:03:40.539Z,15.88
2022-10-24T21:07:42.728Z,15.57
2022-10-24T21:11:44.762Z,15.07
2022-10-24T21:15:46.820Z,16.23
2022-10-24T21:19:48.843Z,15.15
2022-10-24T21:23:55.496Z,15.48
2022-10-24T21:27:57.413Z,14.98
2022-10-24T21:31:59.420Z,15.90
2022-10-24T21:36:06.310Z,15.95
2022-10-24T21:40:08.872Z,17.48
2022-10-24T21:44:10.862Z,15.82
2022-10-24T21:48:15.713Z,15.35
2022-10-24T21:52:17.975Z,15.07
2022-10-24T21:56:22.472Z,15.63
2022-10-24T22:00:24.592Z,14.80
2022-10-24T22:04:26.824Z,16.02
2022-10-24T22:08:28.726Z,16.92
2022-10-24T22:12:30.762Z,15.98
2022-10-24T22:16:33.296Z,15.30
2022-10-24T22:20:35.254Z,13.70
2022-10-24T22:24:37.386Z,14.82
2022-10-24T22:28:39.460Z,15.05
2022-10-24T22:32:41.511Z,14.18
2022-10-24T22:37:16.195Z,14.65
2022-10-24T22:41:18.728Z,13.27
2022-10-24T22:45:21.710Z,12.85
2022-10-24T22:49:38.954Z,13.93
2022-10-24T22:53:41.471Z,14.35
2022-10-24T22:57:43.748Z,14.15
2022-10-24T23:01:59.490Z,14.68
2022-10-24T23:06:12.723Z,14.55
2022-10-24T23:10:20.220Z,14.50
2022-10-24T23:14:22.468Z,14.23
2022-10-24T23:18:24.978Z,15.73
2022-10-24T23:22:32.749Z,14.80
2022-10-24T23:26:44.901Z,16.13
2022-10-24T23:30:47.089Z,16.13
2022-10-24T23:34:50.360Z,15.98
2022-10-24T23:38:52.655Z,16.63
2022-10-24T23:42:56.036Z,14.75
2022-10-24T23:47:17.085Z,16.17
2022-10-24T23:51:25.531Z,15.77
2022-10-24T23:55:28.025Z,16.25
2022-10-24T23:59:30.007Z,16.15
